Time;durP1;ratioP1;P1;durP2;ratioP2;P2;SDS_P1;SDS_P2;PMS_P1;PMS_P2;Temp;Humidity;BMP_temperature;BMP_pressure;BME280_temperature;BME280_humidity;BME280_pressure;Samples;Min_cycle;Max_cycle;Signal;HPM_P1;HPM_P2
2022/07/25 00:00:09;;;;;;;72.53;7.13;;;25.00;20.20;;;;;;5076395;28;20455;-84
2022/07/25 00:02:35;;;;;;;69.30;6.10;;;25.00;21.30;;;;;;5076819;28;20401;-85
2022/07/25 00:05:01;;;;;;;70.70;6.63;;;25.00;22.10;;;;;;5076884;28;20406;-84
2022/07/25 00:07:26;;;;;;;69.10;5.90;;;24.90;21.20;;;;;;5058938;28;20430;-85
2022/07/25 00:09:52;;;;;;;70.10;5.87;;;24.90;22.50;;;;;;5058803;28;20416;-85
2022/07/25 00:12:19;;;;;;;69.60;6.40;;;24.90;22.50;;;;;;5058894;28;20463;-85
2022/07/25 00:14:45;;;;;;;72.57;6.30;;;24.80;23.10;;;;;;5058220;28;20459;-85
2022/07/25 00:17:11;;;;;;;69.30;6.23;;;24.80;22.80;;;;;;5076980;28;20394;-85
2022/07/25 00:19:37;;;;;;;70.50;7.93;;;24.80;22.50;;;;;;5076054;28;20162;-85
2022/07/25 00:22:03;;;;;;;69.93;6.90;;;24.70;22.30;;;;;;5075905;28;20460;-85
2022/07/25 00:24:29;;;;;;;70.77;6.40;;;24.70;22.50;;;;;;5076422;28;20400;-85
2022/07/25 00:26:54;;;;;;;69.90;6.47;;;24.60;23.00;;;;;;5058481;28;20166;-84
2022/07/25 00:29:20;;;;;;;70.27;6.17;;;24.60;24.30;;;;;;5057977;28;20194;-85
2022/07/25 00:31:46;;;;;;;74.47;6.60;;;24.50;25.60;;;;;;5058215;28;20175;-84
2022/07/25 00:34:12;;;;;;;71.70;6.80;;;24.50;26.30;;;;;;5076415;28;20638;-84
2022/07/25 00:36:37;;;;;;;69.63;6.67;;;24.40;24.70;;;;;;5076049;28;20245;-85
2022/07/25 00:39:03;;;;;;;70.60;6.70;;;24.40;25.40;;;;;;5076147;28;20204;-85
2022/07/25 00:41:29;;;;;;;70.27;6.40;;;24.40;26.30;;;;;;5076180;28;20160;-85
2022/07/25 00:43:55;;;;;;;70.23;7.10;;;24.40;26.70;;;;;;5057830;28;20491;-85
2022/07/25 00:46:21;;;;;;;70.53;7.30;;;24.20;24.70;;;;;;5057949;28;20436;-85
2022/07/25 00:48:47;;;;;;;70.77;7.30;;;24.00;27.10;;;;;;5075947;28;20696;-85
2022/07/25 00:51:14;;;;;;;71.40;7.40;;;23.80;26.40;;;;;;5076165;28;20170;-85
2022/07/25 00:53:40;;;;;;;69.30;6.90;;;23.70;29.10;;;;;;5076154;28;20186;-85
2022/07/25 00:56:06;;;;;;;72.23;8.20;;;23.70;27.20;;;;;;5076168;28;20397;-85
2022/07/25 00:58:32;;;;;;;70.87;7.70;;;23.60;27.50;;;;;;5076433;28;20261;-85
2022/07/25 01:00:59;;;;;;;70.57;7.30;;;23.60;27.20;;;;;;5077002;28;20898;-85
2022/07/25 01:03:28;;;;;;;69.60;6.37;;;23.60;26.80;;;;;;5076060;28;20398;-85
2022/07/25 01:05:53;;;;;;;71.27;7.20;;;23.60;27.50;;;;;;5077124;28;20410;-85
2022/07/25 01:08:20;;;;;;;69.60;7.10;;;23.60;25.90;;;;;;5080253;28;20422;-85
2022/07/25 01:10:47;;;;;;;72.27;7.87;;;23.60;24.80;;;;;;5081717;28;20174;-85
2022/07/25 01:13:13;;;;;;;71.00;6.87;;;23.70;24.20;;;;;;5082978;28;20463;-85
2022/07/25 01:15:39;;;;;;;70.07;6.70;;;23.70;24.10;;;;;;5081624;28;20848;-85
2022/07/25 01:18:05;;;;;;;68.67;6.03;;;23.80;24.20;;;;;;5081666;28;20724;-85
2022/07/25 01:20:31;;;;;;;69.87;6.50;;;24.00;24.20;;;;;;5063264;28;20206;-85
2022/07/25 01:22:58;;;;;;;70.10;6.50;;;24.00;23.10;;;;;;5064812;28;20460;-85
2022/07/25 01:25:25;;;;;;;69.47;5.87;;;24.00;23.00;;;;;;5082913;28;20431;-85
2022/07/25 01:27:52;;;;;;;70.10;5.93;;;24.00;23.40;;;;;;5085195;28;20489;-85
2022/07/25 01:30:18;;;;;;;69.30;6.60;;;24.00;22.40;;;;;;5066156;28;20412;-85
2022/07/25 01:32:44;;;;;;;70.50;6.83;;;24.00;22.70;;;;;;5065574;28;20423;-85
2022/07/25 01:35:12;;;;;;;71.00;6.67;;;24.00;22.50;;;;;;5065592;28;21043;-85
2022/07/25 01:37:38;;;;;;;70.97;7.13;;;24.00;23.60;;;;;;5065352;28;20793;-85
2022/07/25 01:40:05;;;;;;;68.97;6.23;;;24.00;23.90;;;;;;5081797;28;20400;-85
2022/07/25 01:42:31;;;;;;;72.27;7.30;;;23.90;24.10;;;;;;5085300;28;20436;-85
2022/07/25 01:44:56;;;;;;;70.60;6.40;;;23.90;25.30;;;;;;5084356;28;20423;-85
2022/07/25 01:47:25;;;;;;;69.90;6.80;;;23.90;26.20;;;;;;5079862;28;20410;-85
2022/07/25 01:49:51;;;;;;;69.37;6.30;;;23.80;27.20;;;;;;5079698;28;20832;-85
2022/07/25 01:52:17;;;;;;;69.73;6.37;;;23.80;27.50;;;;;;5079254;28;20400;-85
2022/07/25 01:54:46;;;;;;;69.40;6.37;;;23.80;27.70;;;;;;5087787;28;20193;-85
2022/07/25 01:57:11;;;;;;;71.07;6.83;;;23.80;28.20;;;;;;5088012;28;20408;-85
2022/07/25 01:59:39;;;;;;;70.90;6.80;;;23.80;28.60;;;;;;5087007;28;20758;-85
2022/07/25 02:02:06;;;;;;;70.07;6.73;;;23.70;28.70;;;;;;5087586;28;20154;-85
2022/07/25 02:04:33;;;;;;;71.30;7.20;;;23.60;29.30;;;;;;5087145;28;20911;-85
2022/07/25 02:06:59;;;;;;;71.20;6.87;;;23.70;28.90;;;;;;5081355;28;20403;-85
2022/07/25 02:09:25;;;;;;;71.90;6.70;;;23.60;27.90;;;;;;5082190;28;20485;-85
2022/07/25 02:11:54;;;;;;;69.80;7.10;;;23.60;29.90;;;;;;5065142;28;20173;-85
2022/07/25 02:14:19;;;;;;;70.60;7.00;;;23.60;29.00;;;;;;5084060;28;20440;-85
2022/07/25 02:16:45;;;;;;;70.47;7.07;;;23.70;28.10;;;;;;5084724;28;20411;-85
2022/07/25 02:19:11;;;;;;;70.87;6.63;;;23.60;27.60;;;;;;5086192;28;20466;-85
2022/07/25 02:21:37;;;;;;;67.80;6.40;;;23.60;28.50;;;;;;5085256;28;20165;-85
2022/07/25 02:24:03;;;;;;;70.10;6.40;;;23.60;28.20;;;;;;5085431;28;20176;-85
2022/07/25 02:26:29;;;;;;;69.80;6.20;;;23.50;28.70;;;;;;5065162;28;20208;-85
2022/07/25 02:28:54;;;;;;;72.10;8.10;;;23.50;28.80;;;;;;5080397;28;20434;-85
2022/07/25 02:31:20;;;;;;;71.07;7.27;;;23.50;28.20;;;;;;5080253;28;20165;-85
2022/07/25 02:33:45;;;;;;;72.07;6.63;;;23.50;27.30;;;;;;5079705;28;20550;-85
2022/07/25 02:36:11;;;;;;;69.40;6.80;;;23.30;30.00;;;;;;5079308;28;20162;-85
2022/07/25 02:38:37;;;;;;;71.53;7.77;;;23.30;30.60;;;;;;5079359;28;20207;-85
2022/07/25 02:41:03;;;;;;;70.07;7.27;;;23.30;31.30;;;;;;5077472;28;20168;-85
2022/07/25 02:43:29;;;;;;;71.50;6.27;;;23.30;31.00;;;;;;5076847;28;20938;-85
2022/07/25 02:45:56;;;;;;;69.97;6.80;;;23.30;31.60;;;;;;5146516;22;20518;-80
2022/07/25 02:48:21;;;;;;;69.57;6.70;;;23.40;31.50;;;;;;5080254;28;20921;-81
2022/07/25 02:50:47;;;;;;;73.87;7.27;;;23.30;30.70;;;;;;5079352;28;20489;-81
2022/07/25 02:53:13;;;;;;;71.77;6.87;;;23.30;32.40;;;;;;5078864;28;20240;-81
2022/07/25 02:55:39;;;;;;;72.10;7.20;;;23.30;32.40;;;;;;5080568;28;20441;-81
2022/07/25 02:58:05;;;;;;;71.87;7.83;;;23.30;32.50;;;;;;5079934;28;20662;-80
2022/07/25 03:00:30;;;;;;;71.30;7.37;;;23.30;32.80;;;;;;5079752;28;20531;-80
2022/07/25 03:02:57;;;;;;;70.93;7.77;;;23.20;31.90;;;;;;5079737;28;20503;-81
2022/07/25 03:05:23;;;;;;;70.67;7.27;;;23.20;32.60;;;;;;5080009;28;20172;-81
2022/07/25 03:07:49;;;;;;;69.47;7.10;;;23.20;31.90;;;;;;5080099;28;20422;-80
2022/07/25 03:10:14;;;;;;;71.70;7.70;;;23.10;32.80;;;;;;5080441;28;20497;-81
2022/07/25 03:12:42;;;;;;;70.77;7.40;;;23.10;32.90;;;;;;5079001;28;20172;-80
2022/07/25 03:15:10;;;;;;;70.97;7.00;;;23.10;32.60;;;;;;5079977;28;20964;-80
2022/07/25 03:17:36;;;;;;;70.07;6.90;;;23.10;33.00;;;;;;5078491;28;20434;-80
2022/07/25 03:20:02;;;;;;;70.37;7.70;;;23.00;34.80;;;;;;5078532;28;20898;-81
2022/07/25 03:22:28;;;;;;;71.07;7.63;;;23.00;34.30;;;;;;5079252;28;20395;-81
2022/07/25 03:24:53;;;;;;;72.70;7.10;;;23.00;33.70;;;;;;5079565;28;20429;-81
2022/07/25 03:27:19;;;;;;;69.47;7.33;;;23.00;32.30;;;;;;5079550;28;20175;-80
2022/07/25 03:29:45;;;;;;;71.03;6.80;;;23.00;33.30;;;;;;5077803;28;20171;-81
2022/07/25 03:32:11;;;;;;;70.80;7.10;;;23.00;33.30;;;;;;5078762;28;20407;-80
2022/07/25 03:34:36;;;;;;;71.50;6.90;;;22.90;33.70;;;;;;5077921;28;20192;-80
2022/07/25 03:37:03;;;;;;;69.77;6.90;;;22.90;31.20;;;;;;5078889;28;20270;-81
2022/07/25 03:39:35;;;;;;;70.20;7.50;;;22.70;34.10;;;;;;5077276;28;20187;-81
2022/07/25 03:42:00;;;;;;;70.80;6.87;;;22.80;36.10;;;;;;5078958;28;20398;-81
2022/07/25 03:44:26;;;;;;;75.87;9.30;;;22.70;34.90;;;;;;5077155;28;20836;-80
2022/07/25 03:46:52;;;;;;;72.97;7.57;;;22.80;35.10;;;;;;5078789;28;20171;-80
2022/07/25 03:49:18;;;;;;;71.93;8.20;;;22.80;34.60;;;;;;5078739;28;20270;-81
2022/07/25 03:51:43;;;;;;;73.80;7.67;;;22.70;34.40;;;;;;5078716;28;20171;-81
2022/07/25 03:54:12;;;;;;;70.90;7.90;;;22.70;35.60;;;;;;5079076;28;20975;-80
2022/07/25 03:56:42;;;;;;;72.07;8.00;;;22.60;35.40;;;;;;5077611;28;20172;-80
2022/07/25 03:59:08;;;;;;;70.10;6.80;;;22.60;38.30;;;;;;5077504;28;20427;-81
2022/07/25 04:01:34;;;;;;;72.43;8.00;;;22.60;38.00;;;;;;5078506;28;20399;-80
2022/07/25 04:04:01;;;;;;;70.57;7.00;;;22.70;37.20;;;;;;5079199;28;20409;-80
2022/07/25 04:06:27;;;;;;;71.77;7.90;;;22.70;37.80;;;;;;5079161;28;20572;-80
2022/07/25 04:08:53;;;;;;;72.03;7.77;;;22.70;37.70;;;;;;5078892;28;20450;-80
2022/07/25 04:11:20;;;;;;;69.40;7.30;;;22.70;38.30;;;;;;5080329;28;20404;-80
2022/07/25 04:13:46;;;;;;;73.77;8.20;;;22.60;38.70;;;;;;5076981;28;20449;-81
2022/07/25 04:16:11;;;;;;;70.37;7.27;;;22.70;39.40;;;;;;5078068;28;20536;-81
2022/07/25 04:18:38;;;;;;;73.40;8.17;;;22.70;39.70;;;;;;5077864;28;21092;-81
2022/07/25 04:21:04;;;;;;;70.77;7.60;;;22.70;40.60;;;;;;5077885;28;20465;-80
2022/07/25 04:23:30;;;;;;;71.23;7.37;;;22.80;40.30;;;;;;5077325;28;20403;-80
2022/07/25 04:25:56;;;;;;;70.10;6.80;;;22.60;41.10;;;;;;5078597;28;20399;-81
2022/07/25 04:28:23;;;;;;;70.83;7.50;;;22.50;40.60;;;;;;5076559;28;20426;-80
2022/07/25 04:30:49;;;;;;;71.33;7.80;;;22.40;44.40;;;;;;5077002;28;20417;-80
2022/07/25 04:33:15;;;;;;;70.97;8.50;;;22.40;45.30;;;;;;5078545;28;20481;-80
2022/07/25 04:35:42;;;;;;;70.37;8.27;;;22.30;47.40;;;;;;5078768;28;20590;-81
2022/07/25 04:38:07;;;;;;;71.97;8.83;;;22.30;48.40;;;;;;5078136;28;20426;-80
2022/07/25 04:40:33;;;;;;;73.90;7.97;;;22.40;47.20;;;;;;5078466;28;20452;-80
2022/07/25 04:42:59;;;;;;;71.50;7.80;;;22.30;49.00;;;;;;5078598;28;20160;-81
2022/07/25 04:45:25;;;;;;;73.40;8.57;;;22.30;46.90;;;;;;5076661;28;20188;-80
2022/07/25 04:47:51;;;;;;;71.53;7.90;;;22.30;47.70;;;;;;5077159;28;20441;-81
2022/07/25 04:50:16;;;;;;;71.60;8.20;;;22.50;49.80;;;;;;5078109;28;20167;-80
2022/07/25 04:52:43;;;;;;;70.40;7.37;;;23.00;50.40;;;;;;5077973;28;20171;-80
2022/07/25 04:55:09;;;;;;;71.93;6.53;;;23.30;44.20;;;;;;5078019;28;20199;-80
2022/07/25 04:57:35;;;;;;;70.87;7.17;;;23.70;33.60;;;;;;5076864;28;20431;-80
2022/07/25 05:00:02;;;;;;;72.00;7.17;;;24.10;29.70;;;;;;5076712;28;20427;-81
2022/07/25 05:02:28;;;;;;;71.00;7.00;;;24.50;25.40;;;;;;5078031;28;20431;-80
2022/07/25 05:04:54;;;;;;;71.00;7.33;;;24.50;15.20;;;;;;5078401;28;20893;-80
2022/07/25 05:07:19;;;;;;;70.00;6.40;;;24.30;14.00;;;;;;5076709;28;20245;-80
2022/07/25 05:09:46;;;;;;;71.00;6.53;;;24.20;16.10;;;;;;5078135;28;20200;-80
2022/07/25 05:12:11;;;;;;;70.47;6.83;;;24.10;16.40;;;;;;5077473;28;20168;-80
2022/07/25 05:14:37;;;;;;;71.10;7.90;;;24.00;17.00;;;;;;5078015;28;20955;-81
2022/07/25 05:17:03;;;;;;;70.97;7.40;;;23.80;19.60;;;;;;5077836;28;20192;-81
2022/07/25 05:19:29;;;;;;;74.47;6.57;;;23.80;19.20;;;;;;5078171;28;20275;-81
2022/07/25 05:21:55;;;;;;;69.80;6.90;;;23.70;19.20;;;;;;5076156;28;20408;-80
2022/07/25 05:24:21;;;;;;;70.00;7.30;;;23.80;17.00;;;;;;5077438;28;20626;-81
2022/07/25 05:26:48;;;;;;;70.47;7.27;;;23.80;16.60;;;;;;5076185;28;20178;-81
2022/07/25 05:29:13;;;;;;;70.47;6.97;;;23.80;16.90;;;;;;5077227;28;20420;-81
2022/07/25 05:31:39;;;;;;;70.67;7.40;;;23.70;17.80;;;;;;5077315;28;20448;-81
2022/07/25 05:34:05;;;;;;;75.97;7.10;;;23.80;18.30;;;;;;5077290;28;20591;-81
2022/07/25 05:36:30;;;;;;;75.17;7.40;;;23.70;19.40;;;;;;5075816;28;20166;-80
2022/07/25 05:38:56;;;;;;;70.43;6.37;;;23.70;19.80;;;;;;5077613;28;20184;-80
2022/07/25 05:41:22;;;;;;;69.77;6.43;;;23.60;20.40;;;;;;5077616;28;20253;-81
2022/07/25 05:43:47;;;;;;;71.30;7.10;;;23.60;24.90;;;;;;5077332;28;20165;-81
2022/07/25 05:46:14;;;;;;;71.90;7.27;;;23.50;23.60;;;;;;5077004;28;20190;-81
2022/07/25 05:48:40;;;;;;;71.07;6.97;;;23.60;24.60;;;;;;5078019;28;20243;-81
2022/07/25 05:51:06;;;;;;;72.80;7.70;;;23.50;24.90;;;;;;5077679;28;20448;-81
2022/07/25 05:53:32;;;;;;;70.60;6.93;;;23.60;29.60;;;;;;5080713;28;20580;-81
2022/07/25 05:55:59;;;;;;;70.70;7.10;;;23.70;27.10;;;;;;5079649;28;20411;-81
2022/07/25 05:58:24;;;;;;;70.80;7.07;;;23.80;30.00;;;;;;5080747;28;20786;-80
2022/07/25 06:00:51;;;;;;;70.57;7.07;;;23.80;33.30;;;;;;5080535;28;20384;-80
2022/07/25 06:03:17;;;;;;;72.27;7.23;;;23.80;32.70;;;;;;5081158;28;20685;-80
2022/07/25 06:05:43;;;;;;;72.10;7.10;;;23.80;34.60;;;;;;5081021;28;21000;-80
2022/07/25 06:08:09;;;;;;;72.17;7.70;;;23.80;40.30;;;;;;5080994;28;20441;-81
2022/07/25 06:10:35;;;;;;;73.90;9.00;;;23.80;41.80;;;;;;5080269;28;20427;-81
2022/07/25 06:13:03;;;;;;;72.67;8.00;;;23.80;39.70;;;;;;5080204;28;20520;-81
2022/07/25 06:15:29;;;;;;;71.40;7.50;;;23.90;42.40;;;;;;5081112;28;20199;-81
2022/07/25 06:17:55;;;;;;;70.23;6.90;;;23.90;47.80;;;;;;5080513;28;20427;-81
2022/07/25 06:20:21;;;;;;;71.17;7.80;;;24.00;37.20;;;;;;5081775;28;20160;-81
2022/07/25 06:22:47;;;;;;;72.80;7.20;;;24.10;39.50;;;;;;5081933;28;20712;-80
2022/07/25 06:25:13;;;;;;;69.60;6.93;;;24.10;24.50;;;;;;5079695;28;20404;-81
2022/07/25 06:27:40;;;;;;;70.00;6.67;;;24.30;27.40;;;;;;5079171;28;20200;-81
2022/07/25 06:30:07;;;;;;;71.63;6.80;;;24.40;27.70;;;;;;5080475;28;20462;-81
2022/07/25 06:32:33;;;;;;;72.60;6.80;;;24.50;26.90;;;;;;5079192;28;20481;-81
2022/07/25 06:34:58;;;;;;;71.27;6.77;;;24.70;28.10;;;;;;5078394;28;20477;-80
2022/07/25 06:37:25;;;;;;;70.90;7.43;;;24.80;24.20;;;;;;5080072;28;20390;-80
2022/07/25 06:39:51;;;;;;;69.03;5.70;;;24.90;22.20;;;;;;5078793;28;20209;-80
2022/07/25 06:42:16;;;;;;;69.57;6.43;;;25.00;20.80;;;;;;5078919;28;20417;-80
2022/07/25 06:44:42;;;;;;;72.60;6.37;;;25.10;19.60;;;;;;5079398;28;20429;-80
2022/07/25 06:47:11;;;;;;;69.90;5.90;;;25.20;19.30;;;;;;5078516;28;20622;-80
2022/07/25 06:49:41;;;;;;;72.10;6.80;;;25.30;17.20;;;;;;5079860;28;20500;-80
2022/07/25 06:52:07;;;;;;;70.23;6.90;;;25.40;17.20;;;;;;5079724;28;20447;-80
2022/07/25 06:54:33;;;;;;;71.63;6.57;;;25.40;19.90;;;;;;5077581;28;20444;-82
2022/07/25 06:56:59;;;;;;;70.77;6.13;;;25.60;19.80;;;;;;5078893;28;20440;-79
2022/07/25 06:59:25;;;;;;;70.93;5.80;;;25.70;21.90;;;;;;5079302;28;20449;-79
2022/07/25 07:01:50;;;;;;;70.90;6.27;;;25.70;24.00;;;;;;5078223;28;20178;-80
2022/07/25 07:04:16;;;;;;;69.70;5.93;;;25.80;23.60;;;;;;5077982;28;20406;-80
2022/07/25 07:06:42;;;;;;;73.63;7.80;;;25.80;22.10;;;;;;5078901;28;20168;-80
2022/07/25 07:09:09;;;;;;;74.30;7.67;;;25.80;26.50;;;;;;5079008;28;20318;-80
2022/07/25 07:11:34;;;;;;;71.70;7.20;;;26.00;33.60;;;;;;5079408;28;20414;-80
2022/07/25 07:14:04;;;;;;;70.37;7.80;;;26.10;33.10;;;;;;5078956;28;20438;-80
2022/07/25 07:16:30;;;;;;;69.57;6.23;;;26.10;22.10;;;;;;5079698;28;20186;-79
2022/07/25 07:18:56;;;;;;;75.30;8.37;;;26.20;29.30;;;;;;5078741;28;20429;-80
2022/07/25 07:21:23;;;;;;;72.43;14.27;;;26.20;31.00;;;;;;5079071;28;20168;-80
2022/07/25 07:23:49;;;;;;;69.70;6.07;;;26.30;45.30;;;;;;5079711;28;20398;-80
2022/07/25 07:26:15;;;;;;;71.37;6.20;;;26.40;14.10;;;;;;5079224;28;20463;-80
2022/07/25 07:28:41;;;;;;;70.90;6.50;;;26.50;18.10;;;;;;5076821;28;20801;-80
2022/07/25 07:31:07;;;;;;;77.03;7.00;;;26.70;19.10;;;;;;5078544;28;20857;-81
2022/07/25 07:33:34;;;;;;;78.80;6.00;;;26.80;14.00;;;;;;5078797;28;20242;-80
2022/07/25 07:36:00;;;;;;;74.13;6.73;;;26.90;7.00;;;;;;5078530;28;20164;-80
2022/07/25 07:38:26;;;;;;;70.77;6.43;;;27.00;7.10;;;;;;5077184;28;20964;-80
2022/07/25 07:40:52;;;;;;;78.70;12.10;;;27.20;9.60;;;;;;5078212;28;20410;-80
2022/07/25 07:43:19;;;;;;;72.20;7.17;;;27.40;31.60;;;;;;5078459;28;20167;-80
2022/07/25 07:45:45;;;;;;;73.33;12.03;;;27.40;24.30;;;;;;5078505;28;20419;-80
2022/07/25 07:48:11;;;;;;;72.33;7.53;;;27.60;41.00;;;;;;5077996;28;20427;-80
2022/07/25 07:50:37;;;;;;;71.10;6.70;;;27.60;22.20;;;;;;5078433;28;20476;-80
2022/07/25 07:53:03;;;;;;;71.23;5.40;;;27.70;17.60;;;;;;5077939;28;20906;-80
2022/07/25 07:55:44;;;;;;;69.90;6.10;;;27.80;1.00;;;;;;5078293;28;20445;-81
2022/07/25 07:58:14;;;;;;;71.63;6.60;;;28.00;7.60;;;;;;5079114;28;20427;-81
2022/07/25 08:00:40;;;;;;;71.80;5.60;;;28.00;4.70;;;;;;5078987;28;20455;-81
2022/07/25 08:03:07;;;;;;;70.80;6.83;;;28.10;7.90;;;;;;5077145;28;20406;-81
2022/07/25 08:05:37;;;;;;;69.40;5.83;;;28.20;1.00;;;;;;5077905;28;20459;-81
2022/07/25 08:08:04;;;;;;;70.57;6.10;;;28.30;1.00;;;;;;5078632;28;20425;-81
2022/07/25 08:10:33;;;;;;;69.03;5.90;;;28.30;1.00;;;;;;5078470;28;20812;-81
2022/07/25 08:13:00;;;;;;;68.70;6.40;;;28.20;1.00;;;;;;5078821;28;20410;-81
2022/07/25 08:15:26;;;;;;;72.60;8.73;;;28.10;1.00;;;;;;5078280;28;20524;-81
2022/07/25 08:17:52;;;;;;;76.27;8.97;;;28.10;1.00;;;;;;5077222;28;20430;-81
2022/07/25 08:20:19;;;;;;;71.50;8.73;;;28.00;1.00;;;;;;5079035;28;20160;-81
2022/07/25 08:22:46;;;;;;;71.93;9.20;;;28.10;1.00;;;;;;5077774;28;20164;-81
2022/07/25 08:25:14;;;;;;;69.97;9.97;;;28.00;1.00;;;;;;5076961;28;20501;-81
2022/07/25 08:27:40;;;;;;;70.07;8.03;;;28.00;1.00;;;;;;5077071;28;20422;-81
2022/07/25 08:30:07;;;;;;;70.10;9.70;;;28.00;1.00;;;;;;5077544;28;20921;-83
2022/07/25 08:32:33;;;;;;;69.97;7.50;;;28.00;1.00;;;;;;5077579;28;20830;-80
2022/07/25 08:35:00;;;;;;;71.77;10.37;;;27.90;1.00;;;;;;5076781;28;20446;-80
2022/07/25 08:37:27;;;;;;;71.67;10.23;;;28.00;1.00;;;;;;5077898;28;20414;-80
2022/07/25 08:39:53;;;;;;;70.63;8.23;;;28.00;1.00;;;;;;5078764;28;20395;-80
2022/07/25 08:42:19;;;;;;;70.20;8.77;;;27.90;1.00;;;;;;5077617;28;20433;-81
2022/07/25 08:44:57;;;;;;;71.20;8.40;;;27.90;1.00;;;;;;5173494;22;20171;-84
2022/07/25 08:47:23;;;;;;;70.60;7.77;;;27.90;1.00;;;;;;5055314;28;20392;-84
2022/07/25 08:49:49;;;;;;;70.47;7.90;;;27.80;1.00;;;;;;5055120;28;20817;-84
2022/07/25 08:52:15;;;;;;;72.60;8.77;;;27.80;1.00;;;;;;5054765;28;20898;-84
2022/07/25 08:54:41;;;;;;;71.70;6.27;;;28.00;1.00;;;;;;5055814;28;20204;-85
2022/07/25 08:57:07;;;;;;;69.70;7.50;;;28.00;1.00;;;;;;5056741;28;20748;-84
2022/07/25 08:59:33;;;;;;;70.80;8.20;;;28.10;1.00;;;;;;5036689;28;20472;-85
2022/07/25 09:02:01;;;;;;;70.67;5.63;;;28.00;1.00;;;;;;5054678;28;20605;-84
2022/07/25 09:04:29;;;;;;;69.90;5.83;;;28.10;1.00;;;;;;5054628;28;20256;-84
2022/07/25 09:06:55;;;;;;;69.67;6.27;;;28.10;1.00;;;;;;5054374;28;20399;-84
2022/07/25 09:09:33;;;;;;;69.70;5.80;;;28.00;1.00;;;;;;5053895;28;20473;-84
2022/07/25 09:11:59;;;;;;;72.00;5.90;;;28.00;1.00;;;;;;5036267;28;20782;-84
2022/07/25 09:14:25;;;;;;;70.00;5.60;;;28.10;1.00;;;;;;5053942;28;20526;-84
2022/07/25 09:16:50;;;;;;;73.90;5.77;;;28.10;1.00;;;;;;5054834;28;20194;-85
2022/07/25 09:19:21;;;;;;;71.83;6.30;;;28.20;1.00;;;;;;5054062;28;20426;-84
2022/07/25 09:22:05;;;;;;;72.40;6.30;;;28.30;1.00;;;;;;5054815;28;20220;-83
2022/07/25 09:24:31;;;;;;;72.30;5.97;;;28.40;1.00;;;;;;5054017;28;20403;-84
2022/07/25 09:26:59;;;;;;;70.80;6.23;;;28.60;1.00;;;;;;5055714;28;20953;-84
2022/07/25 09:29:28;;;;;;;71.47;6.43;;;28.70;1.00;;;;;;5058068;28;20419;-84
2022/07/25 09:31:55;;;;;;;71.77;6.87;;;28.80;1.00;;;;;;5057837;28;20937;-84
2022/07/25 09:34:42;;;;;;;70.27;5.73;;;29.00;1.00;;;;;;5057928;28;20484;-84
2022/07/25 09:37:11;;;;;;;71.10;5.87;;;29.20;1.00;;;;;;5039764;28;20419;-84
2022/07/25 09:39:39;;;;;;;71.87;6.60;;;29.30;1.00;;;;;;5058345;28;20395;-84
2022/07/25 09:42:20;;;;;;;71.30;6.67;;;29.50;1.00;;;;;;5057726;28;20399;-85
2022/07/25 09:45:01;;;;;;;72.40;7.00;;;29.60;1.00;;;;;;5057924;28;20383;-84
2022/07/25 09:47:27;;;;;;;72.67;6.63;;;29.60;1.00;;;;;;5057963;28;20480;-84
2022/07/25 09:49:53;;;;;;;68.50;6.17;;;29.40;1.00;;;;;;5058419;28;20415;-84
2022/07/25 09:52:19;;;;;;;70.40;6.60;;;29.20;1.00;;;;;;5057980;28;20403;-85
2022/07/25 09:54:45;;;;;;;69.03;5.70;;;29.00;1.00;;;;;;5058237;28;20442;-84
2022/07/25 09:57:11;;;;;;;72.20;6.90;;;28.90;1.00;;;;;;5039940;28;20629;-85
2022/07/25 09:59:38;;;;;;;71.20;7.03;;;28.70;1.00;;;;;;5058066;28;20211;-83
2022/07/25 10:02:18;;;;;;;71.87;6.53;;;28.50;1.00;;;;;;5044886;28;20172;-85
2022/07/25 10:05:38;;;;;;;70.80;6.53;;;28.20;1.00;;;;;;5064629;28;20383;-84
2022/07/25 10:08:07;;;;;;;70.97;6.60;;;28.10;1.00;;;;;;4963871;29;20432;-84
2022/07/25 10:10:40;;;;;;;78.33;8.00;;;27.90;1.00;;;;;;5045102;28;20407;-84
2022/07/25 10:13:09;;;;;;;78.80;7.20;;;27.60;1.00;;;;;;5064245;28;20434;-84
2022/07/25 10:15:42;;;;;;;71.27;8.87;;;27.50;1.00;;;;;;5064678;28;20440;-85
2022/07/25 10:18:08;;;;;;;74.37;9.40;;;27.40;1.00;;;;;;5045107;28;20435;-85
2022/07/25 10:20:35;;;;;;;73.30;9.10;;;27.20;1.00;;;;;;5062565;28;20426;-85
2022/07/25 10:23:01;;;;;;;71.27;7.70;;;26.90;1.00;;;;;;5045023;28;20529;-85
2022/07/25 10:25:26;;;;;;;72.87;7.57;;;26.70;1.00;;;;;;5061597;28;20414;-85
2022/07/25 10:27:59;;;;;;;74.23;7.70;;;26.60;1.00;;;;;;5040966;28;20185;-85
2022/07/25 10:30:34;;;;;;;72.87;7.43;;;26.60;1.00;;;;;;5057509;28;20168;-85
2022/07/25 10:33:03;;;;;;;71.90;6.23;;;26.60;1.00;;;;;;5058117;28;20465;-85
2022/07/25 10:35:29;;;;;;;74.50;7.03;;;26.60;3.80;;;;;;5058087;28;20453;-85
2022/07/25 10:37:57;;;;;;;71.40;6.53;;;26.70;5.90;;;;;;5057674;28;20423;-85
2022/07/25 10:40:45;;;;;;;73.33;6.27;;;26.90;6.90;;;;;;5057888;28;20437;-85
2022/07/25 10:43:12;;;;;;;70.57;6.03;;;27.20;5.00;;;;;;5057441;28;20391;-84
2022/07/25 10:45:43;;;;;;;74.17;6.87;;;27.30;1.00;;;;;;5038536;28;20529;-85
2022/07/25 10:48:20;;;;;;;71.63;7.30;;;27.20;1.00;;;;;;5056540;28;20503;-84
2022/07/25 10:50:50;;;;;;;71.97;6.90;;;27.20;1.00;;;;;;5057019;28;20743;-84
2022/07/25 10:53:33;;;;;;;71.47;6.30;;;27.30;1.00;;;;;;5056458;28;20406;-84
2022/07/25 10:56:16;;;;;;;72.07;8.87;;;27.50;1.00;;;;;;5056071;28;20522;-84
2022/07/25 10:58:50;;;;;;;70.13;7.70;;;27.50;1.00;;;;;;5056237;28;20495;-84
2022/07/25 11:01:29;;;;;;;70.07;10.00;;;27.50;1.00;;;;;;5038116;28;21004;-84
2022/07/25 11:04:00;;;;;;;73.17;8.40;;;27.60;1.00;;;;;;5056098;28;20474;-84
2022/07/25 11:06:40;;;;;;;72.23;10.17;;;27.80;1.00;;;;;;5056404;28;20740;-84
2022/07/25 11:09:26;;;;;;;69.27;6.27;;;28.20;1.00;;;;;;5056230;28;20806;-84
2022/07/25 11:11:55;;;;;;;71.47;7.97;;;28.30;1.00;;;;;;5055551;28;20400;-84
2022/07/25 11:14:23;;;;;;;70.40;6.47;;;28.40;1.00;;;;;;5055584;28;20439;-84
2022/07/25 11:16:51;;;;;;;71.93;6.70;;;28.50;1.00;;;;;;5056021;28;20841;-83
2022/07/25 11:19:22;;;;;;;70.40;6.90;;;28.70;1.00;;;;;;5056092;28;20418;-84
2022/07/25 11:21:56;;;;;;;71.07;6.03;;;28.50;1.00;;;;;;5056322;28;20967;-83
2022/07/25 11:24:37;;;;;;;69.07;5.20;;;28.50;1.00;;;;;;5055441;28;20379;-83
2022/07/25 11:27:03;;;;;;;69.17;5.10;;;28.50;1.00;;;;;;5055708;28;20799;-83
2022/07/25 11:29:29;;;;;;;67.50;4.80;;;28.40;1.00;;;;;;5055592;28;20481;-83
2022/07/25 11:32:00;;;;;;;71.67;5.23;;;28.40;1.00;;;;;;5055654;28;20411;-84
2022/07/25 11:34:35;;;;;;;69.30;5.10;;;28.30;1.00;;;;;;5055725;28;20518;-84
2022/07/25 11:37:02;;;;;;;68.77;4.60;;;28.30;1.00;;;;;;5056396;28;20415;-84
2022/07/25 11:39:31;;;;;;;73.20;5.20;;;28.30;1.00;;;;;;5055297;28;20412;-84
2022/07/25 11:42:03;;;;;;;70.17;5.03;;;28.30;1.00;;;;;;5037462;28;20407;-84
2022/07/25 11:44:38;;;;;;;69.07;4.60;;;28.50;1.00;;;;;;5055730;28;20486;-84
2022/07/25 11:47:05;;;;;;;67.93;4.93;;;28.70;1.00;;;;;;5055547;28;20411;-83
2022/07/25 11:49:43;;;;;;;68.53;4.83;;;28.80;1.00;;;;;;5054891;28;20396;-83
2022/07/25 11:52:21;;;;;;;68.87;5.30;;;28.90;1.00;;;;;;5055715;28;20379;-84
2022/07/25 11:55:15;;;;;;;67.60;4.40;;;29.10;1.00;;;;;;5055470;28;20431;-84
2022/07/25 11:57:45;;;;;;;72.37;4.00;;;29.40;1.00;;;;;;5045199;28;20431;-83
2022/07/25 12:00:17;;;;;;;68.00;3.70;;;29.30;1.00;;;;;;5056025;28;20380;-83
2022/07/25 12:02:44;;;;;;;68.50;4.03;;;28.90;1.00;;;;;;5055465;28;20423;-84
2022/07/25 12:05:13;;;;;;;69.20;4.10;;;28.70;1.00;;;;;;5055633;28;20879;-84
2022/07/25 12:07:53;;;;;;;70.17;4.20;;;28.50;1.00;;;;;;5055729;28;20415;-84
2022/07/25 12:10:31;;;;;;;70.33;4.70;;;28.50;1.00;;;;;;5055714;28;20739;-84
2022/07/25 12:12:59;;;;;;;68.77;5.43;;;28.40;1.00;;;;;;5055672;28;20388;-84
2022/07/25 12:15:31;;;;;;;71.17;5.17;;;28.40;1.00;;;;;;5055069;28;20466;-84
2022/07/25 12:17:58;;;;;;;67.50;4.87;;;28.50;1.00;;;;;;5055899;28;20509;-83
2022/07/25 12:20:29;;;;;;;68.67;5.00;;;28.40;1.00;;;;;;5055644;28;20391;-84
2022/07/25 12:22:59;;;;;;;70.10;4.87;;;28.40;1.00;;;;;;5055537;28;20388;-83
2022/07/25 12:25:27;;;;;;;70.20;5.90;;;28.50;1.00;;;;;;5055409;28;20407;-84
2022/07/25 12:27:53;;;;;;;69.07;5.40;;;28.30;1.00;;;;;;5055375;28;20428;-83
2022/07/25 12:30:19;;;;;;;68.57;5.53;;;28.20;1.00;;;;;;5055185;28;20456;-83
2022/07/25 12:32:44;;;;;;;71.27;4.50;;;28.40;1.00;;;;;;5054902;28;20651;-83
2022/07/25 12:35:12;;;;;;;71.73;5.00;;;28.80;1.00;;;;;;5054745;28;20216;-83
2022/07/25 12:37:40;;;;;;;70.20;5.77;;;29.20;1.00;;;;;;5054433;28;20204;-84
2022/07/25 12:40:07;;;;;;;68.70;4.47;;;29.60;1.00;;;;;;5055076;28;20403;-84
2022/07/25 12:42:33;;;;;;;69.90;5.00;;;30.00;1.00;;;;;;5055025;28;20917;-84